Time;durP1;ratioP1;P1;durP2;ratioP2;P2;SDS_P1;SDS_P2;PMS_P1;PMS_P2;Temp;Humidity;BMP_temperature;BMP_pressure;BME280_temperature;BME280_humidity;BME280_pressure;Samples;Min_cycle;Max_cycle;Signal;HPM_P1;HPM_P2
2021/06/10 00:01:51;;;;;;;;;;;17.00;81.00;;;;;;5020236;28;19913;-68
2021/06/10 00:04:17;;;;;;;;;;;17.00;82.80;;;;;;5020850;28;19924;-68
2021/06/10 00:06:42;;;;;;;;;;;17.00;82.80;;;;;;5027044;28;20043;-69
2021/06/10 00:09:08;;;;;;;;;;;17.00;82.40;;;;;;5022257;28;20285;-68
2021/06/10 00:11:33;;;;;;;;;;;16.90;82.70;;;;;;5019635;28;20075;-68
2021/06/10 00:13:59;;;;;;;;;;;16.90;82.90;;;;;;5020874;28;19931;-69
2021/06/10 00:16:24;;;;;;;;;;;16.80;83.40;;;;;;5022042;28;19917;-69
2021/06/10 00:18:51;;;;;;;;;;;16.80;82.10;;;;;;5021443;28;20008;-68
2021/06/10 00:21:17;;;;;;;;;;;16.70;82.50;;;;;;5020963;28;20443;-68
2021/06/10 00:23:43;;;;;;;;;;;16.70;84.00;;;;;;5020804;28;19994;-68
2021/06/10 00:26:08;;;;;;;;;;;16.70;83.70;;;;;;5021322;28;19921;-69
2021/06/10 00:28:34;;;;;;;;;;;16.70;83.70;;;;;;5021677;28;19963;-69
2021/06/10 00:31:00;;;;;;;;;;;16.70;83.50;;;;;;5019384;28;19913;-68
2021/06/10 00:33:26;;;;;;;;;;;16.70;83.20;;;;;;5020434;28;19943;-68
2021/06/10 00:35:51;;;;;;;;;;;16.70;83.20;;;;;;5021986;28;20342;-67
2021/06/10 00:38:17;;;;;;;;;;;16.70;83.20;;;;;;5020393;28;19921;-68
2021/06/10 00:40:42;;;;;;;;;;;16.80;84.20;;;;;;5021743;28;19925;-67
2021/06/10 00:43:08;;;;;;;;;;;16.70;85.10;;;;;;5021151;28;19953;-68
2021/06/10 00:45:33;;;;;;;;;;;16.70;84.60;;;;;;5020931;28;19943;-68
2021/06/10 00:47:59;;;;;;;;;;;16.70;84.30;;;;;;5020323;28;19964;-69
2021/06/10 00:50:28;;;;;;;;;;;16.80;83.60;;;;;;5019756;28;19988;-69
2021/06/10 00:52:54;;;;;;;;;;;16.80;82.90;;;;;;5019954;28;19921;-68
2021/06/10 00:55:19;;;;;;;;;;;16.80;83.80;;;;;;5020184;28;19917;-69
2021/06/10 00:57:45;;;;;;;;;;;16.70;83.70;;;;;;5022217;28;20009;-68
2021/06/10 01:00:12;;;;;;;;;;;16.60;83.60;;;;;;5025477;28;19932;-68
2021/06/10 01:02:37;;;;;;;;;;;16.60;84.80;;;;;;5025004;28;19925;-68
2021/06/10 01:05:05;;;;;;;;;;;16.60;84.30;;;;;;5020672;28;19914;-67
2021/06/10 01:07:37;;;;;;;;;;;16.50;83.70;;;;;;5010548;28;19921;-68
2021/06/10 01:10:08;;;;;;;;;;;16.40;83.50;;;;;;5007969;28;19914;-67
2021/06/10 01:12:52;;;;;;;;;;;16.30;83.90;;;;;;5022426;28;20521;-67
2021/06/10 01:15:19;;;;;;;;;;;16.30;84.50;;;;;;5009042;28;19921;-68
2021/06/10 01:17:46;;;;;;;;;;;16.20;83.30;;;;;;5013427;28;19929;-68
2021/06/10 01:20:17;;;;;;;;;;;16.10;85.10;;;;;;5006152;28;20080;-67
2021/06/10 01:22:55;;;;;;;;;;;16.00;85.30;;;;;;5022156;28;20040;-66
2021/06/10 01:25:23;;;;;;;;;;;16.00;85.30;;;;;;5024486;28;20012;-68
2021/06/10 01:27:51;;;;;;;;;;;16.00;85.50;;;;;;5040147;28;20087;-68
2021/06/10 01:30:27;;;;;;;;;;;15.90;85.30;;;;;;5010632;28;20493;-68
2021/06/10 01:32:57;;;;;;;;;;;15.80;86.00;;;;;;5008671;28;19917;-68
2021/06/10 01:35:24;;;;;;;;;;;15.80;86.40;;;;;;5016149;28;19928;-67
2021/06/10 01:37:51;;;;;;;;;;;15.70;86.40;;;;;;5017813;28;19914;-67
2021/06/10 01:40:17;;;;;;;;;;;15.60;86.90;;;;;;5014393;28;19929;-68
2021/06/10 01:42:43;;;;;;;;;;;15.60;86.90;;;;;;5008987;28;19970;-68
2021/06/10 01:45:09;;;;;;;;;;;15.50;86.80;;;;;;5008470;28;20036;-66
2021/06/10 01:47:36;;;;;;;;;;;15.40;86.80;;;;;;5010702;28;19958;-67
2021/06/10 01:50:02;;;;;;;;;;;15.30;87.80;;;;;;5023556;28;20326;-68
2021/06/10 01:52:28;;;;;;;;;;;15.30;88.10;;;;;;5024732;28;20077;-67
2021/06/10 01:54:55;;;;;;;;;;;15.30;88.10;;;;;;5017614;28;20407;-68
2021/06/10 01:57:21;;;;;;;;;;;15.20;88.00;;;;;;5022039;28;20216;-67
2021/06/10 01:59:47;;;;;;;;;;;15.20;87.80;;;;;;5013620;28;19921;-67
2021/06/10 02:02:13;;;;;;;;;;;15.10;87.90;;;;;;5015091;28;19975;-67
2021/06/10 02:04:39;;;;;;;;;;;15.00;88.60;;;;;;5009408;28;20136;-67
2021/06/10 02:07:04;;;;;;;;;;;15.00;88.70;;;;;;5015856;28;19961;-67
2021/06/10 02:09:30;;;;;;;;;;;14.90;88.90;;;;;;5021794;28;19999;-66
2021/06/10 02:11:56;;;;;;;;;;;14.90;88.90;;;;;;5026975;28;19909;-66
2021/06/10 02:14:22;;;;;;;;;;;14.80;88.80;;;;;;5011890;28;19918;-67
2021/06/10 02:16:48;;;;;;;;;;;14.80;88.80;;;;;;5024738;28;19982;-68
2021/06/10 02:19:17;;;;;;;;;;;14.80;89.30;;;;;;5011213;28;19929;-68
2021/06/10 02:21:43;;;;;;;;;;;14.70;89.20;;;;;;5013288;28;19924;-67
2021/06/10 02:24:12;;;;;;;;;;;14.60;90.10;;;;;;5007598;28;19917;-67
2021/06/10 02:26:38;;;;;;;;;;;14.60;89.50;;;;;;5021132;28;19995;-66
2021/06/10 02:29:04;;;;;;;;;;;14.60;89.90;;;;;;5023746;28;20235;-68
2021/06/10 02:31:30;;;;;;;;;;;14.50;89.90;;;;;;5025350;28;20370;-67
2021/06/10 02:33:55;;;;;;;;;;;14.50;90.40;;;;;;5011764;28;20098;-67
2021/06/10 02:36:21;;;;;;;;;;;14.50;90.50;;;;;;5022654;28;20103;-67
2021/06/10 02:39:05;;;;;;;;;;;14.40;90.30;;;;;;5023213;28;19948;-68
2021/06/10 02:41:32;;;;;;;;;;;14.40;90.50;;;;;;5008625;28;19936;-69
2021/06/10 02:43:58;;;;;;;;;;;14.30;90.20;;;;;;5020163;28;20417;-68
2021/06/10 02:46:25;;;;;;;;;;;14.30;90.40;;;;;;5008079;28;19914;-67
2021/06/10 02:48:52;;;;;;;;;;;14.30;89.80;;;;;;5022167;28;19978;-67
2021/06/10 02:51:18;;;;;;;;;;;14.20;89.80;;;;;;5017615;28;19929;-67
2021/06/10 02:53:44;;;;;;;;;;;14.20;90.20;;;;;;5013076;28;19920;-67
2021/06/10 02:56:10;;;;;;;;;;;14.10;90.20;;;;;;5010482;28;19914;-67
2021/06/10 02:58:38;;;;;;;;;;;14.10;91.80;;;;;;5015466;28;19917;-68
2021/06/10 03:01:04;;;;;;;;;;;14.10;91.70;;;;;;5009726;28;19936;-67
2021/06/10 03:03:30;;;;;;;;;;;14.00;90.20;;;;;;5012759;28;19917;-67
2021/06/10 03:05:56;;;;;;;;;;;14.10;91.10;;;;;;5013115;28;19941;-67
2021/06/10 03:08:22;;;;;;;;;;;14.00;91.60;;;;;;5016332;28;20033;-67
2021/06/10 03:10:48;;;;;;;;;;;14.00;91.60;;;;;;5021191;28;20040;-68
2021/06/10 03:13:15;;;;;;;;;;;14.00;91.50;;;;;;5015493;28;20717;-69
2021/06/10 03:15:41;;;;;;;;;;;13.90;91.10;;;;;;5023218;28;20012;-67
2021/06/10 03:18:07;;;;;;;;;;;14.00;92.20;;;;;;5022359;28;20059;-67
2021/06/10 03:20:33;;;;;;;;;;;14.00;91.80;;;;;;5005587;28;19913;-68
2021/06/10 03:22:58;;;;;;;;;;;14.00;91.00;;;;;;5009497;28;19914;-67
2021/06/10 03:25:24;;;;;;;;;;;13.90;91.40;;;;;;5006566;28;19917;-67
2021/06/10 03:27:50;;;;;;;;;;;13.90;92.20;;;;;;5010542;28;19913;-67
2021/06/10 03:30:16;;;;;;;;;;;13.90;91.40;;;;;;5009269;28;20201;-67
2021/06/10 03:32:42;;;;;;;;;;;13.90;92.20;;;;;;5010549;28;20404;-67
2021/06/10 03:35:08;;;;;;;;;;;14.00;92.70;;;;;;5010118;28;19989;-68
2021/06/10 03:37:34;;;;;;;;;;;14.00;92.50;;;;;;5021673;28;20253;-67
2021/06/10 03:40:01;;;;;;;;;;;14.00;91.70;;;;;;5024442;28;19917;-66
2021/06/10 03:42:28;;;;;;;;;;;14.00;91.60;;;;;;5013683;28;19924;-67
2021/06/10 03:44:54;;;;;;;;;;;14.10;91.00;;;;;;5009267;28;20397;-67
2021/06/10 03:47:20;;;;;;;;;;;14.10;90.80;;;;;;5023054;28;19992;-67
2021/06/10 03:49:45;;;;;;;;;;;14.10;90.20;;;;;;5015344;28;19909;-67
2021/06/10 03:52:11;;;;;;;;;;;14.20;90.70;;;;;;5016243;28;20368;-67
2021/06/10 03:54:36;;;;;;;;;;;14.30;91.30;;;;;;5004163;28;20341;-68
2021/06/10 03:57:02;;;;;;;;;;;14.30;91.40;;;;;;5008959;28;19968;-66
2021/06/10 03:59:28;;;;;;;;;;;14.40;91.40;;;;;;5011132;28;19928;-68
2021/06/10 04:01:53;;;;;;;;;;;14.50;91.90;;;;;;5020018;28;20289;-68
2021/06/10 04:04:19;;;;;;;;;;;14.50;91.40;;;;;;5017093;28;19917;-67
2021/06/10 04:06:44;;;;;;;;;;;14.60;90.60;;;;;;5016620;28;19914;-67
2021/06/10 04:09:10;;;;;;;;;;;14.70;90.70;;;;;;5009482;28;20048;-68
2021/06/10 04:11:37;;;;;;;;;;;14.80;91.30;;;;;;5006780;28;19928;-68
2021/06/10 04:14:03;;;;;;;;;;;14.90;92.10;;;;;;5004624;28;19957;-67
2021/06/10 04:16:28;;;;;;;;;;;15.00;92.10;;;;;;5021186;28;19962;-67
2021/06/10 04:18:55;;;;;;;;;;;15.10;91.70;;;;;;5004437;28;19936;-69
2021/06/10 04:21:21;;;;;;;;;;;15.10;91.60;;;;;;5008751;28;19932;-67
2021/06/10 04:23:47;;;;;;;;;;;15.20;91.20;;;;;;5014357;28;19921;-68
2021/06/10 04:26:13;;;;;;;;;;;15.20;91.60;;;;;;5013146;28;19925;-68
2021/06/10 04:28:39;;;;;;;;;;;15.30;91.50;;;;;;5007679;28;19982;-68
2021/06/10 04:31:04;;;;;;;;;;;15.40;91.20;;;;;;5013481;28;20390;-66
2021/06/10 04:33:30;;;;;;;;;;;15.50;90.90;;;;;;5007468;28;19920;-67
2021/06/10 04:35:55;;;;;;;;;;;15.60;90.60;;;;;;5010858;28;19909;-67
2021/06/10 04:38:21;;;;;;;;;;;15.60;90.70;;;;;;5013955;28;20429;-68
2021/06/10 04:40:47;;;;;;;;;;;15.80;90.30;;;;;;5023243;28;20326;-67
2021/06/10 04:43:13;;;;;;;;;;;15.90;90.00;;;;;;5013345;28;20300;-66
2021/06/10 04:45:38;;;;;;;;;;;16.00;89.60;;;;;;5016730;28;19961;-67
2021/06/10 04:48:04;;;;;;;;;;;16.10;89.30;;;;;;5021323;28;19971;-67
2021/06/10 04:50:31;;;;;;;;;;;16.30;89.30;;;;;;5023311;28;19920;-68
2021/06/10 04:52:57;;;;;;;;;;;16.40;89.10;;;;;;5009250;28;19913;-67
2021/06/10 04:55:23;;;;;;;;;;;16.50;88.60;;;;;;5010459;28;19923;-67
2021/06/10 04:57:48;;;;;;;;;;;16.60;87.60;;;;;;5018993;28;19956;-66
2021/06/10 05:00:14;;;;;;;;;;;16.70;88.00;;;;;;5020718;28;20064;-66
2021/06/10 05:02:39;;;;;;;;;;;16.90;87.70;;;;;;5011810;28;19944;-67
2021/06/10 05:05:06;;;;;;;;;;;16.90;87.80;;;;;;5007103;28;19996;-67
2021/06/10 05:07:31;;;;;;;;;;;17.00;86.80;;;;;;5013238;28;20402;-66
2021/06/10 05:09:57;;;;;;;;;;;17.10;86.40;;;;;;5023183;28;20008;-67
2021/06/10 05:12:22;;;;;;;;;;;17.20;85.60;;;;;;5017769;28;19922;-67
2021/06/10 05:14:48;;;;;;;;;;;17.30;85.30;;;;;;5015164;28;19965;-67
2021/06/10 05:17:13;;;;;;;;;;;17.40;85.10;;;;;;5021684;28;20040;-67
2021/06/10 05:19:38;;;;;;;;;;;17.40;84.30;;;;;;5003576;28;20100;-68
2021/06/10 05:22:04;;;;;;;;;;;17.50;84.60;;;;;;5013765;28;19917;-68
2021/06/10 05:24:30;;;;;;;;;;;17.60;84.00;;;;;;5004997;28;20330;-67
2021/06/10 05:26:56;;;;;;;;;;;17.70;84.30;;;;;;5016836;28;19917;-68
2021/06/10 05:29:21;;;;;;;;;;;17.70;82.80;;;;;;5022241;28;19928;-68
2021/06/10 05:31:47;;;;;;;;;;;17.70;82.60;;;;;;5022269;28;19921;-68
2021/06/10 05:34:12;;;;;;;;;;;17.80;81.80;;;;;;5019685;28;19953;-69
2021/06/10 05:36:38;;;;;;;;;;;17.80;81.70;;;;;;5017648;28;19962;-68
2021/06/10 05:39:04;;;;;;;;;;;17.80;81.70;;;;;;5014550;28;19917;-68
2021/06/10 05:41:29;;;;;;;;;;;18.00;82.00;;;;;;5011446;28;19926;-68
2021/06/10 05:43:55;;;;;;;;;;;18.00;80.00;;;;;;5007653;28;19959;-68
2021/06/10 05:46:22;;;;;;;;;;;18.10;81.20;;;;;;5013474;28;19913;-67
2021/06/10 05:48:47;;;;;;;;;;;18.20;80.10;;;;;;5013608;28;19953;-68
2021/06/10 05:51:13;;;;;;;;;;;18.30;81.90;;;;;;5014189;28;20145;-68
2021/06/10 05:53:38;;;;;;;;;;;18.40;78.90;;;;;;5018621;28;19913;-69
2021/06/10 05:56:04;;;;;;;;;;;18.50;78.90;;;;;;5021867;28;19967;-68
2021/06/10 05:58:30;;;;;;;;;;;18.50;77.80;;;;;;5018752;28;19996;-68
2021/06/10 06:00:55;;;;;;;;;;;18.50;78.10;;;;;;5020267;28;19932;-68
2021/06/10 06:03:21;;;;;;;;;;;18.60;75.50;;;;;;5016983;28;20032;-69
2021/06/10 06:05:47;;;;;;;;;;;18.60;77.20;;;;;;5012489;28;19918;-69
2021/06/10 06:08:14;;;;;;;;;;;18.60;76.00;;;;;;5033644;28;19924;-68
2021/06/10 06:10:39;;;;;;;;;;;18.60;77.40;;;;;;5024159;28;20350;-69
2021/06/10 06:13:07;;;;;;;;;;;18.80;75.00;;;;;;5018756;28;19925;-67
2021/06/10 06:15:33;;;;;;;;;;;18.80;72.40;;;;;;5021802;28;19975;-68
2021/06/10 06:17:59;;;;;;;;;;;18.90;72.90;;;;;;5020505;28;19961;-69
2021/06/10 06:20:25;;;;;;;;;;;19.00;75.70;;;;;;5021246;28;20394;-69
2021/06/10 06:22:50;;;;;;;;;;;19.20;75.20;;;;;;5021702;28;20003;-69
2021/06/10 06:25:17;;;;;;;;;;;19.30;73.90;;;;;;5032118;28;19992;-68
2021/06/10 06:27:43;;;;;;;;;;;19.30;71.50;;;;;;5014080;28;19928;-69
2021/06/10 06:30:09;;;;;;;;;;;19.50;73.70;;;;;;5011799;28;19917;-68
2021/06/10 06:32:36;;;;;;;;;;;19.60;70.50;;;;;;5022754;28;19983;-68
2021/06/10 06:35:02;;;;;;;;;;;19.90;70.80;;;;;;5015865;28;19964;-70
2021/06/10 06:37:28;;;;;;;;;;;20.00;71.10;;;;;;5021879;28;19913;-69
2021/06/10 06:39:53;;;;;;;;;;;20.40;71.30;;;;;;5020624;28;20457;-69
2021/06/10 06:42:19;;;;;;;;;;;20.20;67.70;;;;;;5009858;28;20393;-69
2021/06/10 06:44:44;;;;;;;;;;;20.50;68.90;;;;;;5031876;28;19995;-70
2021/06/10 06:47:10;;;;;;;;;;;20.40;67.70;;;;;;5019151;28;20028;-69
2021/06/10 06:49:35;;;;;;;;;;;20.60;68.60;;;;;;5020584;28;19913;-69
2021/06/10 06:52:01;;;;;;;;;;;20.70;68.20;;;;;;5020760;28;20441;-70
2021/06/10 06:54:27;;;;;;;;;;;21.00;66.50;;;;;;5016000;28;19992;-70
2021/06/10 06:56:52;;;;;;;;;;;21.10;67.50;;;;;;5018716;28;20517;-68
2021/06/10 06:59:18;;;;;;;;;;;21.30;67.00;;;;;;5015264;28;19917;-70
2021/06/10 07:01:43;;;;;;;;;;;21.10;64.10;;;;;;5021868;28;19967;-69
2021/06/10 07:04:08;;;;;;;;;;;21.10;63.80;;;;;;5014853;28;19925;-70
2021/06/10 07:06:34;;;;;;;;;;;21.20;65.30;;;;;;5016442;28;19936;-69
2021/06/10 07:08:59;;;;;;;;;;;21.50;61.80;;;;;;5011139;28;19913;-70
2021/06/10 07:11:25;;;;;;;;;;;21.80;64.90;;;;;;5006849;28;20376;-70
2021/06/10 07:13:50;;;;;;;;;;;22.40;64.10;;;;;;5017136;28;20383;-70
2021/06/10 07:16:16;;;;;;;;;;;22.80;60.00;;;;;;5017544;28;19925;-70
2021/06/10 07:18:42;;;;;;;;;;;22.60;58.30;;;;;;5019368;28;20372;-70
2021/06/10 07:21:07;;;;;;;;;;;22.70;58.80;;;;;;5015359;28;20405;-70
2021/06/10 07:23:33;;;;;;;;;;;23.00;57.10;;;;;;5032614;28;19968;-71
2021/06/10 07:25:58;;;;;;;;;;;23.00;58.00;;;;;;5023305;28;19920;-71
2021/06/10 07:28:24;;;;;;;;;;;22.90;58.40;;;;;;5015572;28;19918;-72
2021/06/10 07:30:49;;;;;;;;;;;22.70;59.90;;;;;;5012984;28;19928;-70
2021/06/10 07:33:16;;;;;;;;;;;23.10;58.30;;;;;;5022826;28;19958;-70
2021/06/10 07:35:41;;;;;;;;;;;23.40;56.30;;;;;;5014278;28;19913;-70
2021/06/10 07:38:09;;;;;;;;;;;23.00;55.80;;;;;;5020199;28;19936;-70
2021/06/10 07:40:36;;;;;;;;;;;23.40;58.60;;;;;;5013626;28;19922;-70
2021/06/10 07:43:01;;;;;;;;;;;23.40;57.90;;;;;;5016924;28;20376;-69
2021/06/10 07:45:28;;;;;;;;;;;23.80;53.10;;;;;;5020038;28;19986;-70
2021/06/10 07:47:53;;;;;;;;;;;23.90;55.40;;;;;;5020803;28;19974;-70
2021/06/10 07:50:19;;;;;;;;;;;24.10;58.50;;;;;;5016326;28;20400;-70
2021/06/10 07:52:44;;;;;;;;;;;24.00;55.70;;;;;;5013577;28;20397;-69
2021/06/10 07:55:10;;;;;;;;;;;24.00;55.20;;;;;;5016181;28;19913;-69
2021/06/10 07:57:36;;;;;;;;;;;24.30;55.60;;;;;;5019558;28;19913;-69
2021/06/10 08:00:03;;;;;;;;;;;24.40;54.90;;;;;;5016459;28;19928;-68
2021/06/10 08:02:28;;;;;;;;;;;24.20;52.20;;;;;;5018427;28;19939;-69
2021/06/10 08:04:54;;;;;;;;;;;24.30;52.70;;;;;;5008714;28;19917;-68
2021/06/10 08:07:19;;;;;;;;;;;24.30;49.70;;;;;;5011548;28;19923;-70
2021/06/10 08:09:45;;;;;;;;;;;23.90;48.20;;;;;;5004172;28;20338;-70
2021/06/10 08:12:10;;;;;;;;;;;23.90;50.10;;;;;;5019026;28;19944;-70
2021/06/10 08:14:36;;;;;;;;;;;24.00;50.60;;;;;;5017645;28;20073;-70
2021/06/10 08:17:01;;;;;;;;;;;24.40;50.60;;;;;;5018799;28;19994;-70
2021/06/10 08:19:27;;;;;;;;;;;24.00;47.20;;;;;;5018788;28;20394;-70
2021/06/10 08:21:52;;;;;;;;;;;24.00;46.60;;;;;;5019882;28;19931;-69
2021/06/10 08:24:18;;;;;;;;;;;24.40;49.00;;;;;;5015791;28;20051;-69
2021/06/10 08:26:44;;;;;;;;;;;24.80;51.60;;;;;;5012540;28;20065;-69
2021/06/10 08:29:10;;;;;;;;;;;24.90;48.50;;;;;;5014907;28;20019;-68
2021/06/10 08:31:36;;;;;;;;;;;24.70;47.50;;;;;;5037636;28;20012;-69
2021/06/10 08:34:01;;;;;;;;;;;24.70;46.20;;;;;;5014103;28;19975;-69
2021/06/10 08:36:27;;;;;;;;;;;24.90;47.20;;;;;;5020078;28;20012;-71
2021/06/10 08:38:52;;;;;;;;;;;25.10;44.10;;;;;;5018042;28;20309;-70
2021/06/10 08:41:18;;;;;;;;;;;24.80;47.00;;;;;;5013810;28;19921;-70
2021/06/10 08:43:45;;;;;;;;;;;25.00;49.60;;;;;;5016499;28;20015;-70
2021/06/10 08:46:11;;;;;;;;;;;25.00;45.50;;;;;;5021904;28;20419;-70
2021/06/10 08:48:43;;;;;;;;;;;24.50;48.60;;;;;;5015422;28;19929;-70
2021/06/10 08:51:09;;;;;;;;;;;24.90;47.20;;;;;;5011985;28;19933;-71
2021/06/10 08:53:35;;;;;;;;;;;25.10;50.50;;;;;;5007825;28;19927;-70
2021/06/10 08:56:00;;;;;;;;;;;24.90;45.60;;;;;;5015310;28;19992;-70
2021/06/10 08:58:26;;;;;;;;;;;24.80;47.80;;;;;;5019938;28;19914;-69
2021/06/10 09:00:55;;;;;;;;;;;24.80;48.20;;;;;;5020379;28;20009;-69
2021/06/10 09:03:29;;;;;;;;;;;25.10;47.20;;;;;;5015232;28;19996;-71
2021/06/10 09:06:00;;;;;;;;;;;25.50;46.30;;;;;;5006838;28;19922;-69
2021/06/10 09:08:26;;;;;;;;;;;25.10;45.90;;;;;;5014061;28;20516;-70
2021/06/10 09:11:01;;;;;;;;;;;24.80;50.30;;;;;;5016922;28;19913;-69
2021/06/10 09:13:35;;;;;;;;;;;25.30;46.50;;;;;;5018091;28;19913;-70
2021/06/10 09:16:14;;;;;;;;;;;25.70;45.90;;;;;;5018158;28;20484;-71
2021/06/10 09:18:54;;;;;;;;;;;25.90;44.50;;;;;;5018418;28;19977;-69
2021/06/10 09:21:24;;;;;;;;;;;26.40;45.30;;;;;;5023894;28;19913;-71
2021/06/10 09:23:50;;;;;;;;;;;26.90;45.10;;;;;;5021889;28;20297;-70
2021/06/10 09:26:16;;;;;;;;;;;26.80;44.50;;;;;;5026018;28;20333;-69
2021/06/10 09:28:43;;;;;;;;;;;26.40;45.80;;;;;;5021094;28;20341;-70
2021/06/10 09:31:08;;;;;;;;;;;27.10;46.20;;;;;;5024854;28;19920;-70
2021/06/10 09:33:41;;;;;;;;;;;26.80;45.30;;;;;;5013546;28;19917;-70
2021/06/10 09:36:07;;;;;;;;;;;26.40;45.10;;;;;;5011389;28;20025;-69
2021/06/10 09:38:32;;;;;;;;;;;26.70;44.30;;;;;;5015777;28;19921;-70
2021/06/10 09:41:02;;;;;;;;;;;27.00;44.30;;;;;;5014750;28;20626;-70
2021/06/10 09:43:43;;;;;;;;;;;26.60;44.00;;;;;;5025053;28;20009;-70
2021/06/10 09:46:08;;;;;;;;;;;26.40;45.30;;;;;;5011029;28;20531;-70
2021/06/10 09:48:34;;;;;;;;;;;26.70;46.80;;;;;;5022906;28;19963;-69
2021/06/10 09:50:59;;;;;;;;;;;27.00;43.90;;;;;;5020079;28;19960;-70
2021/06/10 09:53:25;;;;;;;;;;;26.40;44.70;;;;;;5023102;28;19931;-71
2021/06/10 09:55:53;;;;;;;;;;;26.40;45.60;;;;;;5020936;28;20004;-70
2021/06/10 09:58:26;;;;;;;;;;;26.20;48.20;;;;;;5025499;28;19949;-72
2021/06/10 10:00:56;;;;;;;;;;;26.60;48.50;;;;;;5030410;28;19963;-70
2021/06/10 10:03:25;;;;;;;;;;;26.50;45.20;;;;;;5024882;28;19921;-71
2021/06/10 10:06:03;;;;;;;;;;;26.70;46.30;;;;;;5015075;28;20617;-70
2021/06/10 10:08:29;;;;;;;;;;;26.30;45.30;;;;;;5014057;28;19952;-70
2021/06/10 10:10:56;;;;;;;;;;;26.30;45.40;;;;;;5010249;28;20011;-71
2021/06/10 10:13:23;;;;;;;;;;;25.70;46.30;;;;;;5013553;28;19917;-70
2021/06/10 10:15:49;;;;;;;;;;;26.40;49.10;;;;;;5031025;28;20050;-70
2021/06/10 10:18:17;;;;;;;;;;;26.10;46.70;;;;;;5023602;28;20379;-71
2021/06/10 10:20:42;;;;;;;;;;;26.40;46.20;;;;;;5024828;28;19913;-71
2021/06/10 10:23:08;;;;;;;;;;;26.30;45.50;;;;;;5019226;28;19945;-71
2021/06/10 10:25:34;;;;;;;;;;;26.70;46.70;;;;;;5014021;28;20381;-71
2021/06/10 10:28:00;;;;;;;;;;;27.00;45.50;;;;;;5015191;28;19917;-71
2021/06/10 10:30:26;;;;;;;;;;;27.20;47.20;;;;;;5024882;28;19952;-71
2021/06/10 10:32:52;;;;;;;;;;;27.30;45.00;;;;;;5023526;28;19921;-71
2021/06/10 10:35:18;;;;;;;;;;;26.90;45.40;;;;;;5018304;28;19920;-72
2021/06/10 10:37:43;;;;;;;;;;;26.60;44.90;;;;;;5008209;28;19914;-70
2021/06/10 10:40:09;;;;;;;;;;;26.70;43.60;;;;;;5016732;28;19992;-71
2021/06/10 10:42:37;;;;;;;;;;;26.80;44.90;;;;;;5013185;28;20012;-71
2021/06/10 10:45:21;;;;;;;;;;;26.80;42.50;;;;;;5022360;28;19921;-70
2021/06/10 10:47:48;;;;;;;;;;;27.20;44.10;;;;;;5021668;28;20349;-71
2021/06/10 10:50:29;;;;;;;;;;;27.50;46.60;;;;;;5015243;28;19966;-72
2021/06/10 10:52:56;;;;;;;;;;;27.90;44.20;;;;;;5021175;28;20004;-70
2021/06/10 10:55:27;;;;;;;;;;;27.50;45.00;;;;;;5018622;28;20354;-70
2021/06/10 10:57:55;;;;;;;;;;;28.10;43.90;;;;;;5024597;28;19972;-71
2021/06/10 11:00:41;;;;;;;;;;;27.50;43.60;;;;;;5017826;28;19932;-71
2021/06/10 11:03:14;;;;;;;;;;;27.70;42.10;;;;;;5007834;28;20431;-70
2021/06/10 11:05:42;;;;;;;;;;;28.00;43.60;;;;;;5016736;28;19924;-71
2021/06/10 11:08:08;;;;;;;;;;;28.40;42.70;;;;;;5018106;28;19968;-71
2021/06/10 11:10:37;;;;;;;;;;;28.30;41.80;;;;;;5012518;28;19967;-71
2021/06/10 11:13:18;;;;;;;;;;;27.70;41.30;;;;;;5019758;28;19925;-71
2021/06/10 11:15:44;;;;;;;;;;;27.00;41.50;;;;;;5023359;28;19917;-70
2021/06/10 11:18:09;;;;;;;;;;;27.30;42.40;;;;;;5023468;28;19913;-70
2021/06/10 11:20:41;;;;;;;;;;;27.80;40.60;;;;;;5013096;28;20282;-71
2021/06/10 11:23:11;;;;;;;;;;;27.70;43.90;;;;;;5013341;28;20003;-71
2021/06/10 11:25:43;;;;;;;;;;;28.00;42.10;;;;;;5016955;28;19949;-70
2021/06/10 11:28:09;;;;;;;;;;;27.80;41.60;;;;;;5016406;28;19932;-71
2021/06/10 11:30:36;;;;;;;;;;;27.50;41.70;;;;;;5018700;28;19932;-72
2021/06/10 11:33:01;;;;;;;;;;;27.50;41.40;;;;;;5006730;28;19913;-70
2021/06/10 11:35:31;;;;;;;;;;;27.60;42.10;;;;;;5023495;28;19913;-70
2021/06/10 11:37:58;;;;;;;;;;;27.30;40.60;;;;;;5024100;28;20342;-71
2021/06/10 11:40:24;;;;;;;;;;;27.20;38.60;;;;;;5012289;28;19917;-68
2021/06/10 11:42:50;;;;;;;;;;;27.60;38.90;;;;;;5003488;28;19980;-70
2021/06/10 11:45:18;;;;;;;;;;;27.90;39.90;;;;;;5017230;28;20353;-68
2021/06/10 11:47:44;;;;;;;;;;;28.30;40.40;;;;;;5024293;28;20007;-71
2021/06/10 11:50:30;;;;;;;;;;;28.10;41.00;;;;;;5019881;28;20051;-69
2021/06/10 11:53:00;;;;;;;;;;;27.80;40.90;;;;;;5023277;28;20357;-68
2021/06/10 11:55:27;;;;;;;;;;;27.70;40.50;;;;;;5021144;28;19917;-70
2021/06/10 11:58:03;;;;;;;;;;;27.50;40.40;;;;;;5019601;28;20023;-71
2021/06/10 12:00:33;;;;;;;;;;;28.00;40.40;;;;;;5008850;28;19913;-69
2021/06/10 12:02:59;;;;;;;;;;;28.20;42.30;;;;;;4999637;28;20276;-71
2021/06/10 12:05:25;;;;;;;;;;;29.00;42.50;;;;;;5021285;28;20230;-71
2021/06/10 12:08:05;;;;;;;;;;;29.00;38.50;;;;;;5020988;28;19917;-70
2021/06/10 12:10:30;;;;;;;;;;;29.20;36.40;;;;;;5018499;28;19913;-71
2021/06/10 12:12:56;;;;;;;;;;;29.40;36.10;;;;;;5022809;28;19909;-73
2021/06/10 12:15:26;;;;;;;;;;;30.00;36.30;;;;;;5020348;28;20376;-69
2021/06/10 12:18:01;;;;;;;;;;;30.20;36.30;;;;;;5020558;28;19913;-71
2021/06/10 12:20:34;;;;;;;;;;;29.90;37.30;;;;;;5019177;28;19925;-71
2021/06/10 12:23:00;;;;;;;;;;;30.20;39.20;;;;;;5020016;28;20292;-71
2021/06/10 12:25:27;;;;;;;;;;;30.10;37.20;;;;;;5020965;28;19961;-71
2021/06/10 12:27:56;;;;;;;;;;;30.60;35.40;;;;;;5020376;28;20086;-70
2021/06/10 12:30:32;;;;;;;;;;;30.50;35.80;;;;;;5019248;28;20512;-69
2021/06/10 12:33:09;;;;;;;;;;;30.20;35.00;;;;;;5017876;28;20030;-70
2021/06/10 12:35:36;;;;;;;;;;;31.00;33.80;;;;;;5019122;28;20022;-71
2021/06/10 12:38:02;;;;;;;;;;;31.00;34.60;;;;;;5020790;28;20378;-71
2021/06/10 12:40:34;;;;;;;;;;;30.20;36.60;;;;;;5016687;28;19928;-72
2021/06/10 12:43:10;;;;;;;;;;;30.50;34.90;;;;;;5020983;28;19928;-72
2021/06/10 12:45:37;;;;;;;;;;;30.40;36.20;;;;;;5018001;28;20468;-71
2021/06/10 12:48:18;;;;;;;;;;;30.20;36.30;;;;;;5019240;28;19923;-71
2021/06/10 12:50:44;;;;;;;;;;;30.00;36.90;;;;;;5016015;28;19919;-71
2021/06/10 12:53:09;;;;;;;;;;;30.80;35.00;;;;;;5018602;28;20282;-71
2021/06/10 12:55:35;;;;;;;;;;;30.60;36.20;;;;;;5019953;28;19913;-71
2021/06/10 12:58:01;;;;;;;;;;;30.60;36.40;;;;;;5020642;28;20028;-71
2021/06/10 13:00:31;;;;;;;;;;;30.50;34.60;;;;;;5011141;28;20388;-72
2021/06/10 13:03:15;;;;;;;;;;;31.00;35.30;;;;;;5017544;28;19975;-70
2021/06/10 13:05:40;;;;;;;;;;;31.50;35.50;;;;;;5015761;28;20005;-71
2021/06/10 13:08:06;;;;;;;;;;;31.00;35.90;;;;;;5014534;28;19913;-71
2021/06/10 13:10:43;;;;;;;;;;;30.80;36.60;;;;;;5015456;28;19939;-71
2021/06/10 13:13:12;;;;;;;;;;;30.40;34.80;;;;;;5018588;28;19917;-71
2021/06/10 13:15:40;;;;;;;;;;;30.70;36.10;;;;;;5014908;28;19931;-72
2021/06/10 13:18:06;;;;;;;;;;;31.10;34.00;;;;;;5018500;28;19943;-70
2021/06/10 13:20:41;;;;;;;;;;;31.50;36.00;;;;;;5014694;28;20110;-72
2021/06/10 13:23:07;;;;;;;;;;;31.60;33.40;;;;;;5017331;28;20330;-71
2021/06/10 13:25:32;;;;;;;;;;;31.00;33.60;;;;;;5019192;28;19996;-71
2021/06/10 13:28:08;;;;;;;;;;;30.90;34.20;;;;;;5015029;28;19988;-71
2021/06/10 13:30:33;;;;;;;;;;;31.50;34.70;;;;;;5017473;28;20005;-72
2021/06/10 13:32:59;;;;;;;;;;;31.60;33.80;;;;;;5014957;28;20093;-71
2021/06/10 13:35:25;;;;;;;;;;;32.30;32.80;;;;;;5018253;28;20237;-70
2021/06/10 13:37:51;;;;;;;;;;;31.20;34.10;;;;;;5019070;28;19920;-71
2021/06/10 13:40:16;;;;;;;;;;;30.80;34.10;;;;;;5018374;28;20281;-72
2021/06/10 13:42:49;;;;;;;;;;;31.50;33.20;;;;;;5017214;28;20005;-69
2021/06/10 13:45:15;;;;;;;;;;;31.50;33.70;;;;;;5015928;28;19996;-72
2021/06/10 13:47:40;;;;;;;;;;;31.00;33.40;;;;;;5019284;28;20000;-72
2021/06/10 13:50:06;;;;;;;;;;;30.30;34.70;;;;;;5015986;28;19921;-71
2021/06/10 13:52:31;;;;;;;;;;;30.80;35.60;;;;;;5030077;28;20411;-71
2021/06/10 13:54:57;;;;;;;;;;;30.90;35.10;;;;;;5016485;28;20065;-70
2021/06/10 13:57:22;;;;;;;;;;;31.00;32.90;;;;;;5017722;28;19932;-72
2021/06/10 13:59:48;;;;;;;;;;;30.80;33.70;;;;;;5018005;28;20414;-71
2021/06/10 14:02:15;;;;;;;;;;;31.30;32.20;;;;;;5016035;28;19999;-71
2021/06/10 14:04:40;;;;;;;;;;;31.80;33.50;;;;;;5016810;28;20310;-71
2021/06/10 14:07:07;;;;;;;;;;;31.90;30.60;;;;;;5021886;28;19961;-71
2021/06/10 14:09:32;;;;;;;;;;;32.00;31.50;;;;;;5019186;28;20258;-70
2021/06/10 14:11:58;;;;;;;;;;;32.00;32.20;;;;;;5021346;28;19921;-71
2021/06/10 14:14:23;;;;;;;;;;;32.10;32.40;;;;;;5019039;28;19933;-72
2021/06/10 14:16:49;;;;;;;;;;;32.50;31.70;;;;;;5021969;28;20343;-73